Terminal Aerodrome Forecast
Issued by NWS Omaha/Valley, NE

Home | Current Version | Previous Version | Graphics & Text | Print | Product List | Glossary On
Versions: 1 2 3 4 5 6 7 8 9 10 11 12 13 14 15 16 17 18 19 20 21 22 23 24 25 26 27 28 29 30 31 32 33 34 35
000
FTUS43 KOAX 312240 AAA
TAFOFK
TAF AMD
KOFK 312240Z 3123/0118 19008KT P6SM SCT040 BKN150
     FM010100 VRB05KT P6SM SCT250
     FM010400 VRB04KT P6SM SCT030
     FM011500 16007KT P6SM BKN120=

USA.gov is the U.S. government's official web portal to all federal, state and local government web resources and services.